createdAt,value
2018-01-07T00:01:52.902Z,11.67
2018-01-07T00:04:21.496Z,11.83
2018-01-07T00:06:50.074Z,13.53
2018-01-07T00:09:18.538Z,11.47
2018-01-07T00:11:47.442Z,9.77
2018-01-07T00:14:16.200Z,11.32
2018-01-07T00:16:44.571Z,10.83
2018-01-07T00:19:13.058Z,11.37
2018-01-07T00:21:41.535Z,10.43
2018-01-07T00:24:10.429Z,10.63
2018-01-07T00:26:38.943Z,10.98
2018-01-07T00:29:07.317Z,10.67
2018-01-07T00:31:35.972Z,11.07
2018-01-07T00:34:04.358Z,10.03
2018-01-07T00:36:34.077Z,10.05
2018-01-07T00:39:02.801Z,10.10
2018-01-07T00:41:31.227Z,9.90
2018-01-07T00:43:59.677Z,9.60
2018-01-07T00:46:28.053Z,11.70
2018-01-07T00:48:57.805Z,11.80
2018-01-07T00:51:26.573Z,10.55
2018-01-07T00:53:56.010Z,10.60
2018-01-07T00:56:24.669Z,10.52
2018-01-07T00:58:53.053Z,10.80
2018-01-07T01:01:21.090Z,9.47
2018-01-07T01:03:50.289Z,9.70
2018-01-07T01:06:19.426Z,9.20
2018-01-07T01:08:47.795Z,9.80
2018-01-07T01:11:16.210Z,9.90
2018-01-07T01:13:45.464Z,10.07
2018-01-07T01:16:13.839Z,9.80
2018-01-07T01:18:42.218Z,9.47
2018-01-07T01:21:10.700Z,10.93
2018-01-07T01:23:39.344Z,9.52
2018-01-07T01:26:08.494Z,9.93
2018-01-07T01:28:37.270Z,9.15
2018-01-07T01:31:07.288Z,9.30
2018-01-07T01:33:35.950Z,10.13
2018-01-07T01:36:04.450Z,10.60
2018-01-07T01:38:33.634Z,9.07
2018-01-07T01:41:02.982Z,10.50
2018-01-07T01:43:31.634Z,11.20
2018-01-07T01:46:00.037Z,10.57
2018-01-07T01:48:28.426Z,10.10
2018-01-07T01:50:57.090Z,9.90
2018-01-07T01:53:25.477Z,11.00
2018-01-07T01:55:57.708Z,9.90
2018-01-07T01:58:26.902Z,10.10
2018-01-07T02:00:55.514Z,9.60
2018-01-07T02:03:24.177Z,9.45
2018-01-07T02:05:53.601Z,10.82
2018-01-07T02:08:22.487Z,10.02
2018-01-07T02:10:51.087Z,9.90
2018-01-07T02:13:19.745Z,10.70
2018-01-07T02:15:48.515Z,9.60
2018-01-07T02:18:17.201Z,10.00
2018-01-07T02:20:46.814Z,9.70
2018-01-07T02:23:15.322Z,8.83
2018-01-07T02:25:43.985Z,9.65
2018-01-07T02:28:12.353Z,9.60
2018-01-07T02:30:40.752Z,10.60
2018-01-07T02:33:09.422Z,10.20
2018-01-07T02:35:37.793Z,10.47
2018-01-07T02:38:07.099Z,10.17
2018-01-07T02:40:36.526Z,10.82
2018-01-07T02:43:05.185Z,10.07
2018-01-07T02:45:34.267Z,10.35
2018-01-07T02:48:02.684Z,9.73
2018-01-07T02:50:31.953Z,10.60
2018-01-07T02:53:01.373Z,12.25
2018-01-07T02:55:30.045Z,10.50
2018-01-07T02:57:58.421Z,11.70
2018-01-07T03:00:27.104Z,11.20
2018-01-07T03:02:55.686Z,12.60
2018-01-07T03:05:25.102Z,11.55
2018-01-07T03:07:53.751Z,11.27
2018-01-07T03:10:22.480Z,10.75
2018-01-07T03:12:51.367Z,11.30
2018-01-07T03:15:19.406Z,11.30
2018-01-07T03:17:47.950Z,10.27
2018-01-07T03:20:16.314Z,10.33
2018-01-07T03:22:44.686Z,10.20
2018-01-07T03:25:13.070Z,11.03
2018-01-07T03:27:41.697Z,10.43
2018-01-07T03:30:10.354Z,10.50
2018-01-07T03:32:39.530Z,10.57
2018-01-07T03:35:08.009Z,10.40
2018-01-07T03:37:36.757Z,9.80
2018-01-07T03:40:06.181Z,10.03
2018-01-07T03:42:34.549Z,9.70
2018-01-07T03:45:03.249Z,10.27
2018-01-07T03:47:31.637Z,10.43
2018-01-07T03:50:00.016Z,9.83
2018-01-07T03:52:29.936Z,11.18
2018-01-07T03:54:58.629Z,10.30
2018-01-07T03:57:27.777Z,10.13
2018-01-07T03:59:57.177Z,11.70
2018-01-07T04:02:25.816Z,12.23
2018-01-07T04:04:54.196Z,11.97
2018-01-07T04:07:22.777Z,10.47
2018-01-07T04:09:51.101Z,11.30
2018-01-07T04:12:19.510Z,12.03
2018-01-07T04:14:48.205Z,11.60
2018-01-07T04:17:16.856Z,13.47
2018-01-07T04:19:45.228Z,14.03
2018-01-07T04:22:14.454Z,13.03
2018-01-07T04:24:42.832Z,12.20
2018-01-07T04:27:11.320Z,13.80
2018-01-07T04:29:39.727Z,12.10
2018-01-07T04:32:08.166Z,14.20
2018-01-07T04:34:36.819Z,12.50
2018-01-07T04:37:05.347Z,12.60
2018-01-07T04:39:37.386Z,11.83
2018-01-07T04:42:05.757Z,12.00
2018-01-07T04:44:34.460Z,11.68
2018-01-07T04:47:02.914Z,12.57
2018-01-07T04:49:31.369Z,11.50
2018-01-07T04:52:00.741Z,11.27
2018-01-07T04:54:29.125Z,11.20
2018-01-07T04:56:57.775Z,12.50
2018-01-07T04:59:26.357Z,12.07
2018-01-07T05:01:55.831Z,11.47
2018-01-07T05:04:24.287Z,11.20
2018-01-07T05:06:52.933Z,10.70
2018-01-07T05:09:21.591Z,10.52
2018-01-07T05:11:50.108Z,12.23
2018-01-07T05:14:18.575Z,13.00
2018-01-07T05:16:46.972Z,12.60
2018-01-07T05:19:15.553Z,12.90
2018-01-07T05:21:44.044Z,12.70
2018-01-07T05:24:14.006Z,12.57
2018-01-07T05:26:43.319Z,11.27
2018-01-07T05:29:11.692Z,11.87
2018-01-07T05:31:40.904Z,13.63
2018-01-07T05:34:09.330Z,14.37
2018-01-07T05:36:37.864Z,15.17
2018-01-07T05:39:06.356Z,14.53
2018-01-07T05:41:35.020Z,15.97
2018-01-07T05:44:03.430Z,15.80
2018-01-07T05:46:32.072Z,16.27
2018-01-07T05:49:00.451Z,13.63
2018-01-07T05:51:28.826Z,14.37
2018-01-07T05:53:57.026Z,13.97
2018-01-07T05:56:25.410Z,15.27
2018-01-07T05:58:54.554Z,15.50
2018-01-07T06:01:23.999Z,14.57
2018-01-07T06:03:52.379Z,15.30
2018-01-07T06:06:21.059Z,14.47
2018-01-07T06:08:50.561Z,14.80
2018-01-07T06:11:19.097Z,16.17
2018-01-07T06:13:48.313Z,15.47
2018-01-07T06:16:16.973Z,16.48
2018-01-07T06:18:45.725Z,18.30
2018-01-07T06:21:14.245Z,19.00
2018-01-07T06:23:42.625Z,17.53
2018-01-07T06:26:10.993Z,18.33
2018-01-07T06:28:39.657Z,18.60
2018-01-07T06:31:08.497Z,18.87
2018-01-07T06:33:38.100Z,18.50
2018-01-07T06:36:06.881Z,21.27
2018-01-07T06:38:35.913Z,20.88
2018-01-07T06:41:05.217Z,21.77
2018-01-07T06:43:33.626Z,22.87
2018-01-07T06:46:02.180Z,21.53
2018-01-07T06:48:30.784Z,21.67
2018-01-07T06:50:59.526Z,23.50
2018-01-07T06:53:28.384Z,22.30
2018-01-07T06:55:56.774Z,24.70
2018-01-07T06:58:27.173Z,24.30
2018-01-07T07:00:56.703Z,23.47
2018-01-07T07:03:25.182Z,21.77
2018-01-07T07:05:54.672Z,21.65
2018-01-07T07:08:23.166Z,21.07
2018-01-07T07:10:51.645Z,24.33
2018-01-07T07:13:20.124Z,22.43
2018-01-07T07:15:48.534Z,23.90
2018-01-07T07:18:17.216Z,24.35
2018-01-07T07:20:45.751Z,21.13
2018-01-07T07:23:14.902Z,22.60
2018-01-07T07:25:43.378Z,22.07
2018-01-07T07:28:11.860Z,23.60
2018-01-07T07:30:40.460Z,23.40
2018-01-07T07:33:08.838Z,22.60
2018-01-07T07:35:37.277Z,23.57
2018-01-07T07:38:05.690Z,22.30
2018-01-07T07:40:34.061Z,22.70
2018-01-07T07:43:02.708Z,24.47
2018-01-07T07:45:31.096Z,23.87
2018-01-07T07:47:59.469Z,23.20
2018-01-07T07:50:28.251Z,22.20
2018-01-07T07:52:56.639Z,23.03
2018-01-07T07:55:24.821Z,23.17
2018-01-07T07:57:53.186Z,21.57
2018-01-07T08:00:21.878Z,22.40
2018-01-07T08:02:50.666Z,21.45
2018-01-07T08:05:19.319Z,24.50
2018-01-07T08:07:47.704Z,23.63
2018-01-07T08:10:17.893Z,21.63
2018-01-07T08:12:47.038Z,25.40
2018-01-07T08:15:15.764Z,25.70
2018-01-07T08:17:44.298Z,26.50
2018-01-07T08:20:13.726Z,23.77
2018-01-07T08:22:42.166Z,22.27
2018-01-07T08:25:10.682Z,23.10
2018-01-07T08:27:39.968Z,24.40
2018-01-07T08:30:08.627Z,24.42
2018-01-07T08:32:37.350Z,19.77
2018-01-07T08:35:05.902Z,22.23
2018-01-07T08:37:34.293Z,19.73
2018-01-07T08:40:03.276Z,19.90
2018-01-07T08:42:31.702Z,19.33
2018-01-07T08:45:00.048Z,19.40
2018-01-07T08:47:29.341Z,19.90
2018-01-07T08:49:58.774Z,18.90
2018-01-07T08:52:27.433Z,17.98
2018-01-07T08:54:56.093Z,17.10
2018-01-07T08:57:24.477Z,18.03
2018-01-07T08:59:52.902Z,17.60
2018-01-07T09:02:21.649Z,16.37
2018-01-07T09:04:50.037Z,16.00
2018-01-07T09:07:18.939Z,17.55
2018-01-07T09:09:47.591Z,16.07
2018-01-07T09:12:17.003Z,15.65
2018-01-07T09:14:45.582Z,13.83
2018-01-07T09:17:15.011Z,14.35
2018-01-07T09:19:43.391Z,14.80
2018-01-07T09:22:12.004Z,14.77
2018-01-07T09:24:40.524Z,17.47
2018-01-07T09:27:08.562Z,15.97
2018-01-07T09:29:37.216Z,14.65
2018-01-07T09:32:05.584Z,14.30
2018-01-07T09:34:34.262Z,13.60
2018-01-07T09:37:03.029Z,15.97
2018-01-07T09:39:32.244Z,15.97
2018-01-07T09:42:01.016Z,17.27
2018-01-07T09:44:29.534Z,15.60
2018-01-07T09:46:57.902Z,17.10
2018-01-07T09:49:26.577Z,14.20
2018-01-07T09:51:54.965Z,14.40
2018-01-07T09:54:23.505Z,14.37
2018-01-07T09:56:51.894Z,14.40
2018-01-07T09:59:20.630Z,15.45
2018-01-07T10:01:49.294Z,16.53
2018-01-07T10:04:17.803Z,16.40
2018-01-07T10:06:46.485Z,16.63
2018-01-07T10:09:14.899Z,15.63
2018-01-07T10:11:43.624Z,15.17
2018-01-07T10:14:12.033Z,13.47
2018-01-07T10:16:40.685Z,13.10
2018-01-07T10:19:09.061Z,13.17
2018-01-07T10:21:37.860Z,14.02
2018-01-07T10:24:06.662Z,13.00
2018-01-07T10:26:35.308Z,14.23
2018-01-07T10:29:03.956Z,14.40
2018-01-07T10:31:32.807Z,14.07
2018-01-07T10:34:01.450Z,15.27
2018-01-07T10:36:30.868Z,14.63
2018-01-07T10:38:59.243Z,14.83
2018-01-07T10:41:28.656Z,14.30
2018-01-07T10:43:57.310Z,14.80
2018-01-07T10:46:25.724Z,14.77
2018-01-07T10:48:54.582Z,14.93
2018-01-07T10:51:24.001Z,14.10
2018-01-07T10:53:52.402Z,13.80
2018-01-07T10:56:20.774Z,13.03
2018-01-07T10:58:49.237Z,14.70
2018-01-07T11:01:23.237Z,15.50
2018-01-07T11:03:52.672Z,15.63
2018-01-07T11:06:21.044Z,16.83
2018-01-07T11:08:49.490Z,15.17
2018-01-07T11:11:17.664Z,15.13
2018-01-07T11:13:47.072Z,14.80
2018-01-07T11:16:15.596Z,16.00
2018-01-07T11:18:44.055Z,15.40
2018-01-07T11:21:13.346Z,14.63
2018-01-07T11:23:42.542Z,14.10
2018-01-07T11:26:11.202Z,15.18
2018-01-07T11:28:40.636Z,15.80
2018-01-07T11:31:09.122Z,15.70
2018-01-07T11:33:37.574Z,15.37
2018-01-07T11:36:06.994Z,16.65
2018-01-07T11:38:35.369Z,16.30
2018-01-07T11:41:03.833Z,14.77
2018-01-07T11:43:32.226Z,15.18
2018-01-07T11:46:00.601Z,14.23
2018-01-07T11:48:29.958Z,16.00
2018-01-07T11:50:59.098Z,16.67
2018-01-07T11:53:27.678Z,14.63
2018-01-07T11:55:56.447Z,13.80
2018-01-07T11:58:25.121Z,14.70
2018-01-07T12:00:53.493Z,15.30
2018-01-07T12:03:23.038Z,12.90
2018-01-07T12:05:51.685Z,13.40
2018-01-07T12:08:20.073Z,14.40
2018-01-07T12:10:48.460Z,13.40
2018-01-07T12:13:17.139Z,13.40
2018-01-07T12:15:45.775Z,13.00
2018-01-07T12:18:14.562Z,11.82
2018-01-07T12:20:43.019Z,13.27
2018-01-07T12:23:11.484Z,13.83
2018-01-07T12:25:39.885Z,12.83
2018-01-07T12:28:08.536Z,12.53
2018-01-07T12:30:38.322Z,13.95
2018-01-07T12:33:08.392Z,14.80
2018-01-07T12:35:36.950Z,12.93
2018-01-07T12:38:05.776Z,13.20
2018-01-07T12:40:34.467Z,12.98
2018-01-07T12:43:04.042Z,12.75
2018-01-07T12:45:32.422Z,13.70
2018-01-07T12:48:00.840Z,13.33
2018-01-07T12:50:29.985Z,14.43
2018-01-07T12:52:59.466Z,13.20
2018-01-07T12:55:27.898Z,15.30
2018-01-07T12:57:56.554Z,14.65
2018-01-07T13:00:25.207Z,14.40
2018-01-07T13:02:53.874Z,14.00
2018-01-07T13:05:23.022Z,14.03
2018-01-07T13:07:51.394Z,13.30
2018-01-07T13:10:20.005Z,13.30
2018-01-07T13:12:48.386Z,13.50
2018-01-07T13:15:16.761Z,15.00
2018-01-07T13:17:45.157Z,15.53
2018-01-07T13:20:13.533Z,14.80
2018-01-07T13:22:41.917Z,14.40
2018-01-07T13:25:11.199Z,13.30
2018-01-07T13:27:39.571Z,14.50
2018-01-07T13:30:08.127Z,13.27
2018-01-07T13:32:36.629Z,14.20
2018-01-07T13:35:05.118Z,13.90
2018-01-07T13:37:33.778Z,13.05
2018-01-07T13:40:02.444Z,12.80
2018-01-07T13:42:30.853Z,14.07
2018-01-07T13:44:59.226Z,11.67
2018-01-07T13:47:27.675Z,12.80
2018-01-07T13:49:56.046Z,12.60
2018-01-07T13:52:24.409Z,13.87
2018-01-07T13:54:53.682Z,13.27
2018-01-07T13:57:22.337Z,13.53
2018-01-07T13:59:51.006Z,13.10
2018-01-07T14:02:19.585Z,12.90
2018-01-07T14:04:48.078Z,13.93
2018-01-07T14:07:16.733Z,14.00
2018-01-07T14:09:45.121Z,11.87
2018-01-07T14:12:13.513Z,13.07
2018-01-07T14:14:41.889Z,12.73
2018-01-07T14:17:10.575Z,13.27
2018-01-07T14:19:39.776Z,12.10
2018-01-07T14:22:08.230Z,11.53
2018-01-07T14:24:36.622Z,14.30
2018-01-07T14:27:05.833Z,11.90
2018-01-07T14:29:34.288Z,12.50
2018-01-07T14:32:02.695Z,12.33
2018-01-07T14:34:31.378Z,13.23
2018-01-07T14:36:59.762Z,13.07
2018-01-07T14:39:28.150Z,12.57
2018-01-07T14:41:56.802Z,13.48
2018-01-07T14:44:26.210Z,12.60
2018-01-07T14:46:55.720Z,13.70
2018-01-07T14:49:23.765Z,14.95
2018-01-07T14:51:52.170Z,15.77
2018-01-07T14:54:20.409Z,14.13
2018-01-07T14:56:48.947Z,14.80
2018-01-07T14:59:17.370Z,16.10
2018-01-07T15:01:46.531Z,16.70
2018-01-07T15:04:16.531Z,16.50
2018-01-07T15:06:45.221Z,17.63
2018-01-07T15:09:14.522Z,16.63
2018-01-07T15:11:42.945Z,15.67
2018-01-07T15:14:11.437Z,16.90
2018-01-07T15:16:39.817Z,17.50
2018-01-07T15:19:08.305Z,14.60
2018-01-07T15:21:36.793Z,15.50
2018-01-07T15:24:06.222Z,15.17
2018-01-07T15:26:34.875Z,15.68
2018-01-07T15:29:04.325Z,15.37
2018-01-07T15:31:32.980Z,15.38
2018-01-07T15:34:01.621Z,14.07
2018-01-07T15:36:30.285Z,14.05
2018-01-07T15:38:58.970Z,15.50
2018-01-07T15:41:27.622Z,14.60
2018-01-07T15:43:56.232Z,14.87
2018-01-07T15:46:25.068Z,14.20
2018-01-07T15:48:53.236Z,15.90
2018-01-07T15:51:23.204Z,14.20
2018-01-07T15:53:51.586Z,14.83
2018-01-07T15:56:20.228Z,14.70
2018-01-07T15:58:48.886Z,16.20
2018-01-07T16:01:17.670Z,16.60
2018-01-07T16:03:46.044Z,16.00
2018-01-07T16:06:15.203Z,15.27
2018-01-07T16:08:43.886Z,17.30
2018-01-07T16:11:12.542Z,15.73
2018-01-07T16:13:40.911Z,16.23
2018-01-07T16:16:10.341Z,17.48
2018-01-07T16:18:38.681Z,17.12
2018-01-07T16:21:07.066Z,16.87
2018-01-07T16:23:35.649Z,18.53
2018-01-07T16:26:03.817Z,18.27
2018-01-07T16:28:33.299Z,21.80
2018-01-07T16:31:02.446Z,19.53
2018-01-07T16:33:30.833Z,19.70
2018-01-07T16:35:59.485Z,22.30
2018-01-07T16:38:28.904Z,21.13
2018-01-07T16:40:57.628Z,21.15
2018-01-07T16:43:26.449Z,22.30
2018-01-07T16:45:55.162Z,24.90
2018-01-07T16:48:23.632Z,25.27
2018-01-07T16:50:53.041Z,26.00
2018-01-07T16:53:21.453Z,23.30
2018-01-07T16:55:50.095Z,25.87
2018-01-07T16:58:18.562Z,27.40
2018-01-07T17:00:47.248Z,28.00
2018-01-07T17:03:15.902Z,27.20
2018-01-07T17:05:45.108Z,23.47
2018-01-07T17:08:14.210Z,25.73
2018-01-07T17:10:42.587Z,29.30
2018-01-07T17:13:10.969Z,25.50
2018-01-07T17:15:39.464Z,27.30
2018-01-07T17:18:07.872Z,27.37
2018-01-07T17:20:36.238Z,24.37
2018-01-07T17:23:05.726Z,28.67
2018-01-07T17:25:34.119Z,26.23
2018-01-07T17:28:02.590Z,26.00
2018-01-07T17:30:30.981Z,25.90
2018-01-07T17:32:59.626Z,26.80
2018-01-07T17:35:28.951Z,25.60
2018-01-07T17:37:57.339Z,27.87
2018-01-07T17:40:26.721Z,24.37
2018-01-07T17:42:56.133Z,25.95
2018-01-07T17:45:24.860Z,25.40
2018-01-07T17:47:53.241Z,26.03
2018-01-07T17:50:21.897Z,27.73
2018-01-07T17:52:50.281Z,26.57
2018-01-07T17:55:18.721Z,27.10
2018-01-07T17:57:47.405Z,26.07
2018-01-07T18:00:15.949Z,25.20
2018-01-07T18:02:44.320Z,24.37
2018-01-07T18:05:12.777Z,27.63
2018-01-07T18:07:41.543Z,25.77
2018-01-07T18:10:09.974Z,26.00
2018-01-07T18:12:38.528Z,25.33
2018-01-07T18:15:07.174Z,25.52
2018-01-07T18:17:35.606Z,24.00
2018-01-07T18:20:05.396Z,24.87
2018-01-07T18:22:34.059Z,23.97
2018-01-07T18:25:02.439Z,26.97
2018-01-07T18:27:30.639Z,24.30
2018-01-07T18:29:59.297Z,23.87
2018-01-07T18:32:27.682Z,24.73
2018-01-07T18:34:57.137Z,24.10
2018-01-07T18:37:26.291Z,24.90
2018-01-07T18:39:54.675Z,23.30
2018-01-07T18:42:23.047Z,23.87
2018-01-07T18:44:51.711Z,23.20
2018-01-07T18:47:20.293Z,23.17
2018-01-07T18:49:49.762Z,21.35
2018-01-07T18:52:18.918Z,23.10
2018-01-07T18:54:47.581Z,22.77
2018-01-07T18:57:16.013Z,22.60
2018-01-07T18:59:44.680Z,23.80
2018-01-07T19:02:13.329Z,24.48
2018-01-07T19:04:41.699Z,23.83
2018-01-07T19:07:10.087Z,23.03
2018-01-07T19:09:38.461Z,24.92
2018-01-07T19:12:07.077Z,24.00
2018-01-07T19:14:35.466Z,23.17
2018-01-07T19:17:04.411Z,23.33
2018-01-07T19:19:32.796Z,23.27
2018-01-07T19:22:01.002Z,24.30
2018-01-07T19:24:29.378Z,23.50
2018-01-07T19:26:57.761Z,24.17
2018-01-07T19:29:26.118Z,24.77
2018-01-07T19:31:54.492Z,23.50
2018-01-07T19:34:22.866Z,24.13
2018-01-07T19:36:51.241Z,24.57
2018-01-07T19:39:20.805Z,25.60
2018-01-07T19:41:49.946Z,25.90
2018-01-07T19:44:18.469Z,25.17
2018-01-07T19:46:47.817Z,24.53
2018-01-07T19:49:17.233Z,25.53
2018-01-07T19:51:45.625Z,25.30
2018-01-07T19:54:14.359Z,24.03
2018-01-07T19:56:42.997Z,26.17
2018-01-07T19:59:11.745Z,27.27
2018-01-07T20:01:40.419Z,25.48
2018-01-07T20:04:08.813Z,24.37
2018-01-07T20:06:37.365Z,25.57
2018-01-07T20:09:05.689Z,25.10
2018-01-07T20:11:34.352Z,25.50
2018-01-07T20:14:02.745Z,25.67
2018-01-07T20:16:31.194Z,26.57
2018-01-07T20:18:59.840Z,26.30
2018-01-07T20:21:28.218Z,26.70
2018-01-07T20:23:56.739Z,27.20
2018-01-07T20:26:25.429Z,27.60
2018-01-07T20:28:54.086Z,26.48
2018-01-07T20:31:22.738Z,26.27
2018-01-07T20:33:52.208Z,25.77
2018-01-07T20:36:21.526Z,26.20
2018-01-07T20:38:49.938Z,26.80
2018-01-07T20:41:18.402Z,26.23
2018-01-07T20:43:46.506Z,27.73
2018-01-07T20:46:15.034Z,27.90
2018-01-07T20:48:44.734Z,27.87
2018-01-07T20:51:12.795Z,27.33
2018-01-07T20:53:40.872Z,25.93
2018-01-07T20:56:09.117Z,26.67
2018-01-07T20:58:38.407Z,26.10
2018-01-07T21:01:07.028Z,27.70
2018-01-07T21:03:36.453Z,26.95
2018-01-07T21:06:05.125Z,28.90
2018-01-07T21:08:33.985Z,27.73
2018-01-07T21:11:02.376Z,27.40
2018-01-07T21:13:30.766Z,28.73
2018-01-07T21:15:59.341Z,27.87
2018-01-07T21:18:27.946Z,27.33
2018-01-07T21:20:56.362Z,26.97
2018-01-07T21:23:24.986Z,28.03
2018-01-07T21:25:53.720Z,25.93
2018-01-07T21:28:22.102Z,25.80
2018-01-07T21:30:50.226Z,27.23
2018-01-07T21:33:18.610Z,26.90
2018-01-07T21:35:47.360Z,26.23
2018-01-07T21:38:15.978Z,27.40
2018-01-07T21:40:44.359Z,26.43
2018-01-07T21:43:13.050Z,27.07
2018-01-07T21:45:41.429Z,27.67
2018-01-07T21:48:10.087Z,25.50
2018-01-07T21:50:38.481Z,26.63
2018-01-07T21:53:06.845Z,27.83
2018-01-07T21:55:35.545Z,28.20
2018-01-07T21:58:03.935Z,27.60
2018-01-07T22:00:43.704Z,26.75
2018-01-07T22:03:23.382Z,27.70
2018-01-07T22:05:54.674Z,26.05
2018-01-07T22:08:23.342Z,27.23
2018-01-07T22:10:52.960Z,27.67
2018-01-07T22:13:21.614Z,26.87
2018-01-07T22:15:51.025Z,25.55
2018-01-07T22:18:19.810Z,27.20
2018-01-07T22:20:49.312Z,28.23
2018-01-07T22:23:18.522Z,27.40
2018-01-07T22:25:47.176Z,27.55
2018-01-07T22:28:16.322Z,26.43
2018-01-07T22:30:44.690Z,28.17
2018-01-07T22:33:13.082Z,25.37
2018-01-07T22:35:41.460Z,27.27
2018-01-07T22:38:11.350Z,27.53
2018-01-07T22:40:40.774Z,27.52
2018-01-07T22:43:09.358Z,27.47
2018-01-07T22:45:37.878Z,29.90
2018-01-07T22:48:09.350Z,28.60
2018-01-07T22:50:38.766Z,29.67
2018-01-07T22:53:07.274Z,27.70
2018-01-07T22:55:35.654Z,27.90
2018-01-07T22:58:04.022Z,28.93
2018-01-07T23:00:32.405Z,38.90
2018-01-07T23:03:00.787Z,29.80
2018-01-07T23:05:29.209Z,29.27
2018-01-07T23:07:57.846Z,30.05
2018-01-07T23:10:26.225Z,29.07
2018-01-07T23:12:54.881Z,28.58
2018-01-07T23:15:24.297Z,30.35
2018-01-07T23:17:52.685Z,28.00
2018-01-07T23:20:21.069Z,28.90
2018-01-07T23:22:49.453Z,30.60
2018-01-07T23:25:18.163Z,29.42
2018-01-07T23:27:47.305Z,30.30
2018-01-07T23:30:15.677Z,28.53
2018-01-07T23:32:45.109Z,29.73
2018-01-07T23:35:13.489Z,29.43
2018-01-07T23:37:42.189Z,28.73
2018-01-07T23:40:10.856Z,30.58
2018-01-07T23:42:39.507Z,27.13
2018-01-07T23:45:08.974Z,28.13
2018-01-07T23:47:37.632Z,29.00
2018-01-07T23:50:06.015Z,31.33
2018-01-07T23:52:34.660Z,29.42
2018-01-07T23:55:03.050Z,28.27
2018-01-07T23:57:31.722Z,29.90
